Time,TemperatureF,DewpointF,PressureIn,WindDirection,WindDirectionDegrees,WindSpeedMPH,WindSpeedGustMPH,Humidity,HourlyPrecipIn,Conditions,Clouds,dailyrainin,SolarRadiationWatts/m^2,SoftwareType,DateUTC
2013-03-07 00:02:00,66.0,52.0,30.07,ESE,104,2.0,6.0,61,0.00,,,0.00,0.000000,,2013-03-07 10:02:00,
2013-03-07 00:11:00,66.0,52.0,30.07,ESE,104,2.0,6.0,61,0.00,,,0.00,0.000000,,2013-03-07 10:11:00,
2013-03-07 00:43:00,66.0,52.0,30.05,SE,138,5.0,6.0,60,0.00,,,0.00,0.000000,,2013-03-07 10:43:00,
2013-03-07 00:53:00,66.0,52.0,30.05,SE,138,5.0,6.0,60,0.00,,,0.00,0.000000,,2013-03-07 10:53:00,
2013-03-07 01:02:00,66.0,52.0,30.05,SE,138,5.0,6.0,60,0.00,,,0.00,0.000000,,2013-03-07 11:02:00,
2013-03-07 01:11:00,66.0,52.0,30.05,SE,138,5.0,6.0,60,0.00,,,0.00,0.000000,,2013-03-07 11:11:00,
2013-03-07 01:44:00,66.0,53.0,30.04,ESE,107,4.0,7.0,63,0.00,,,0.00,0.000000,,2013-03-07 11:44:00,
2013-03-07 01:54:00,66.0,53.0,30.04,ESE,107,4.0,7.0,63,0.00,,,0.00,0.000000,,2013-03-07 11:54:00,
2013-03-07 02:02:00,66.0,53.0,30.04,ESE,107,4.0,7.0,63,0.00,,,0.00,0.000000,,2013-03-07 12:02:00,
2013-03-07 02:11:00,66.0,53.0,30.04,ESE,107,4.0,7.0,63,0.00,,,0.00,0.000000,,2013-03-07 12:11:00,
2013-03-07 02:34:00,68.0,54.0,30.03,East,82,4.0,7.0,61,0.00,,,0.00,0.000000,,2013-03-07 12:34:00,
2013-03-07 02:43:00,68.0,54.0,30.03,East,82,4.0,7.0,61,0.00,,,0.00,0.000000,,2013-03-07 12:43:00,
2013-03-07 02:52:00,68.0,54.0,30.03,East,82,4.0,7.0,61,0.00,,,0.00,0.000000,,2013-03-07 12:52:00,
2013-03-07 03:02:00,68.0,54.0,30.03,East,82,4.0,7.0,61,0.00,,,0.00,0.000000,,2013-03-07 13:02:00,
2013-03-07 03:12:00,68.0,54.0,30.03,East,82,4.0,7.0,61,0.00,,,0.00,0.000000,,2013-03-07 13:12:00,
2013-03-07 03:42:00,67.0,55.0,30.01,NE,47,4.0,7.0,65,0.00,,,0.00,0.000000,,2013-03-07 13:42:00,
2013-03-07 03:53:00,67.0,55.0,30.01,NE,47,4.0,7.0,65,0.00,,,0.00,0.000000,,2013-03-07 13:53:00,
2013-03-07 04:01:00,67.0,55.0,30.01,NE,47,4.0,7.0,65,0.00,,,0.00,0.000000,,2013-03-07 14:01:00,
2013-03-07 04:11:00,67.0,55.0,30.01,NE,47,4.0,7.0,65,0.00,,,0.00,0.000000,,2013-03-07 14:11:00,
2013-03-07 04:33:00,66.0,56.0,30.01,NE,50,6.0,9.0,69,0.00,,,0.00,0.000000,,2013-03-07 14:33:00,
2013-03-07 04:43:00,66.0,56.0,30.01,NE,50,6.0,9.0,69,0.00,,,0.00,0.000000,,2013-03-07 14:43:00,
2013-03-07 04:53:00,66.0,56.0,30.01,NE,50,6.0,9.0,69,0.00,,,0.00,0.000000,,2013-03-07 14:53:00,
2013-03-07 05:11:00,66.0,56.0,30.01,NE,50,6.0,9.0,69,0.00,,,0.00,0.000000,,2013-03-07 15:11:00,
2013-03-07 05:43:00,67.0,56.0,30.01,ENE,59,7.0,9.0,67,0.00,,,0.00,0.000000,,2013-03-07 15:43:00,
2013-03-07 05:53:00,67.0,56.0,30.01,ENE,59,7.0,9.0,67,0.00,,,0.00,0.000000,,2013-03-07 15:53:00,
2013-03-07 06:01:00,67.0,56.0,30.01,ENE,59,7.0,9.0,67,0.00,,,0.00,0.000000,,2013-03-07 16:01:00,
2013-03-07 06:11:00,67.0,56.0,30.01,ENE,59,7.0,9.0,67,0.00,,,0.00,0.000000,,2013-03-07 16:11:00,
2013-03-07 06:43:00,67.0,52.0,30.02,NE,54,7.0,9.0,59,0.00,,,0.00,0.000000,,2013-03-07 16:43:00,
2013-03-07 06:53:00,67.0,52.0,30.02,NE,54,7.0,9.0,59,0.00,,,0.00,0.000000,,2013-03-07 16:53:00,
2013-03-07 07:01:00,67.0,52.0,30.02,NE,54,7.0,9.0,59,0.00,,,0.00,0.000000,,2013-03-07 17:01:00,
2013-03-07 07:11:00,67.0,52.0,30.02,NE,54,7.0,9.0,59,0.00,,,0.00,0.000000,,2013-03-07 17:11:00,
2013-03-07 07:44:00,67.0,53.0,30.04,NE,48,6.0,9.0,60,0.00,,,0.00,16.000000,,2013-03-07 17:44:00,
2013-03-07 07:54:00,67.0,53.0,30.04,NE,48,6.0,9.0,60,0.00,,,0.00,16.000000,,2013-03-07 17:54:00,
2013-03-07 08:02:00,67.0,53.0,30.04,NE,48,6.0,9.0,60,0.00,,,0.00,16.000000,,2013-03-07 18:02:00,
2013-03-07 08:11:00,67.0,53.0,30.04,NE,48,6.0,9.0,60,0.00,,,0.00,16.000000,,2013-03-07 18:11:00,
2013-03-07 08:32:00,76.0,58.0,30.06,ENE,71,5.0,8.0,53,0.00,,,0.00,173.000000,,2013-03-07 18:32:00,
2013-03-07 08:42:00,76.0,58.0,30.06,ENE,71,5.0,8.0,53,0.00,,,0.00,173.000000,,2013-03-07 18:42:00,
2013-03-07 08:52:00,76.0,58.0,30.06,ENE,71,5.0,8.0,53,0.00,,,0.00,173.000000,,2013-03-07 18:52:00,
2013-03-07 09:02:00,76.0,58.0,30.06,ENE,71,5.0,8.0,53,0.00,,,0.00,173.000000,,2013-03-07 19:02:00,
2013-03-07 09:11:00,76.0,58.0,30.06,ENE,71,5.0,8.0,53,0.00,,,0.00,173.000000,,2013-03-07 19:11:00,
2013-03-07 09:35:00,79.0,63.0,30.06,WSW,256,6.0,9.0,59,0.00,,,0.00,440.000000,,2013-03-07 19:35:00,
2013-03-07 09:44:00,79.0,63.0,30.06,WSW,256,6.0,9.0,59,0.00,,,0.00,440.000000,,2013-03-07 19:44:00,
2013-03-07 09:52:00,79.0,63.0,30.06,WSW,256,6.0,9.0,59,0.00,,,0.00,440.000000,,2013-03-07 19:52:00,
2013-03-07 10:01:00,79.0,63.0,30.06,WSW,256,6.0,9.0,59,0.00,,,0.00,440.000000,,2013-03-07 20:01:00,
2013-03-07 10:43:00,79.0,62.0,30.07,SW,233,8.0,10.0,57,0.00,,,0.00,679.000000,,2013-03-07 20:43:00,
2013-03-07 10:54:00,79.0,62.0,30.07,SW,233,8.0,10.0,57,0.00,,,0.00,679.000000,,2013-03-07 20:54:00,
2013-03-07 11:02:00,79.0,62.0,30.07,SW,233,8.0,10.0,57,0.00,,,0.00,679.000000,,2013-03-07 21:02:00,
2013-03-07 11:11:00,79.0,62.0,30.07,SW,233,8.0,10.0,57,0.00,,,0.00,679.000000,,2013-03-07 21:11:00,
2013-03-07 11:43:00,79.0,62.0,30.06,SW,229,8.0,10.0,57,0.00,,,0.00,942.000000,,2013-03-07 21:43:00,
2013-03-07 11:52:00,79.0,62.0,30.06,SW,229,8.0,10.0,57,0.00,,,0.00,942.000000,,2013-03-07 21:52:00,
2013-03-07 12:01:00,79.0,62.0,30.06,SW,229,8.0,10.0,57,0.00,,,0.00,942.000000,,2013-03-07 22:01:00,
2013-03-07 12:11:00,79.0,62.0,30.06,SW,229,8.0,10.0,57,0.00,,,0.00,942.000000,,2013-03-07 22:11:00,
2013-03-07 12:33:00,80.0,62.0,30.04,WSW,246,9.0,12.0,55,0.00,,,0.00,1058.000000,,2013-03-07 22:33:00,
2013-03-07 12:43:00,80.0,62.0,30.04,WSW,246,9.0,12.0,55,0.00,,,0.00,1058.000000,,2013-03-07 22:43:00,
2013-03-07 12:54:00,80.0,62.0,30.04,WSW,246,9.0,12.0,55,0.00,,,0.00,1058.000000,,2013-03-07 22:54:00,
2013-03-07 13:02:00,80.0,62.0,30.04,WSW,246,9.0,12.0,55,0.00,,,0.00,1058.000000,,2013-03-07 23:02:00,
2013-03-07 13:12:00,80.0,62.0,30.04,WSW,246,9.0,12.0,55,0.00,,,0.00,1058.000000,,2013-03-07 23:12:00,
2013-03-07 13:34:00,81.0,63.0,30.01,West,265,8.0,12.0,55,0.00,,,0.00,1119.000000,,2013-03-07 23:34:00,
2013-03-07 13:44:00,81.0,63.0,30.01,West,265,8.0,12.0,55,0.00,,,0.00,1119.000000,,2013-03-07 23:44:00,
2013-03-07 13:53:00,81.0,63.0,30.01,West,265,8.0,12.0,55,0.00,,,0.00,1119.000000,,2013-03-07 23:53:00,
2013-03-07 14:02:00,81.0,63.0,30.01,West,265,8.0,12.0,55,0.00,,,0.00,1119.000000,,2013-03-08 00:02:00,
2013-03-07 14:34:00,79.0,63.0,29.99,West,274,8.0,12.0,59,0.00,,,0.00,761.000000,,2013-03-08 00:34:00,
2013-03-07 14:44:00,79.0,63.0,29.99,West,274,8.0,12.0,59,0.00,,,0.00,761.000000,,2013-03-08 00:44:00,
2013-03-07 14:53:00,79.0,63.0,29.99,West,274,8.0,12.0,59,0.00,,,0.00,761.000000,,2013-03-08 00:53:00,
2013-03-07 15:01:00,79.0,63.0,29.99,West,274,8.0,12.0,59,0.00,,,0.00,761.000000,,2013-03-08 01:01:00,
2013-03-07 15:11:00,79.0,63.0,29.99,West,274,8.0,12.0,59,0.00,,,0.00,761.000000,,2013-03-08 01:11:00,
2013-03-07 15:42:00,78.0,63.0,29.97,West,267,8.0,11.0,61,0.00,,,0.00,328.000000,,2013-03-08 01:42:00,
2013-03-07 15:52:00,78.0,63.0,29.97,West,267,8.0,11.0,61,0.00,,,0.00,328.000000,,2013-03-08 01:52:00,
2013-03-07 16:01:00,78.0,63.0,29.97,West,267,8.0,11.0,61,0.00,,,0.00,328.000000,,2013-03-08 02:01:00,
2013-03-07 16:11:00,78.0,63.0,29.97,West,267,8.0,11.0,61,0.00,,,0.00,328.000000,,2013-03-08 02:11:00,
2013-03-07 16:42:00,76.0,65.0,29.96,WNW,294,8.0,10.0,68,0.00,,,0.00,226.000000,,2013-03-08 02:42:00,
2013-03-07 16:52:00,76.0,65.0,29.96,WNW,294,8.0,10.0,68,0.00,,,0.00,226.000000,,2013-03-08 02:52:00,
2013-03-07 17:02:00,76.0,65.0,29.96,WNW,294,8.0,10.0,68,0.00,,,0.00,226.000000,,2013-03-08 03:02:00,
2013-03-07 17:11:00,76.0,65.0,29.96,WNW,294,8.0,10.0,68,0.00,,,0.00,226.000000,,2013-03-08 03:11:00,
2013-03-07 17:33:00,76.0,64.0,29.97,WNW,288,6.0,10.0,67,0.00,,,0.00,120.000000,,2013-03-08 03:33:00,
2013-03-07 17:43:00,76.0,64.0,29.97,WNW,288,6.0,10.0,67,0.00,,,0.00,120.000000,,2013-03-08 03:43:00,
2013-03-07 17:52:00,76.0,64.0,29.97,WNW,288,6.0,10.0,67,0.00,,,0.00,120.000000,,2013-03-08 03:52:00,
2013-03-07 18:01:00,76.0,64.0,29.97,WNW,288,6.0,10.0,67,0.00,,,0.00,120.000000,,2013-03-08 04:01:00,
2013-03-07 18:11:00,76.0,64.0,29.97,WNW,288,6.0,10.0,67,0.00,,,0.00,120.000000,,2013-03-08 04:11:00,
2013-03-07 18:32:00,75.0,64.0,29.99,NW,307,7.0,10.0,69,0.00,,,0.00,28.000000,,2013-03-08 04:32:00,
2013-03-07 18:42:00,75.0,64.0,29.99,NW,307,7.0,10.0,69,0.00,,,0.00,28.000000,,2013-03-08 04:42:00,
2013-03-07 18:52:00,75.0,64.0,29.99,NW,307,7.0,10.0,69,0.00,,,0.00,28.000000,,2013-03-08 04:52:00,
2013-03-07 19:01:00,75.0,64.0,29.99,NW,307,7.0,10.0,69,0.00,,,0.00,28.000000,,2013-03-08 05:01:00,
2013-03-07 19:12:00,75.0,64.0,29.99,NW,307,7.0,10.0,69,0.00,,,0.00,28.000000,,2013-03-08 05:12:00,
2013-03-07 19:33:00,75.0,65.0,30.01,WNW,285,6.0,11.0,70,0.00,,,0.00,2.000000,,2013-03-08 05:33:00,
2013-03-07 19:42:00,75.0,65.0,30.01,WNW,285,6.0,11.0,70,0.00,,,0.00,2.000000,,2013-03-08 05:42:00,
2013-03-07 19:52:00,75.0,65.0,30.01,WNW,285,6.0,11.0,70,0.00,,,0.00,2.000000,,2013-03-08 05:52:00,
2013-03-07 20:01:00,75.0,65.0,30.01,WNW,285,6.0,11.0,70,0.00,,,0.00,2.000000,,2013-03-08 06:01:00,
2013-03-07 20:11:00,75.0,65.0,30.01,WNW,285,6.0,11.0,70,0.00,,,0.00,2.000000,,2013-03-08 06:11:00,
2013-03-07 20:32:00,74.0,62.0,30.03,WNW,288,6.0,10.0,67,0.00,,,0.00,0.000000,,2013-03-08 06:32:00,
2013-03-07 20:42:00,74.0,62.0,30.03,WNW,288,6.0,10.0,67,0.00,,,0.00,0.000000,,2013-03-08 06:42:00,
2013-03-07 20:52:00,74.0,62.0,30.03,WNW,288,6.0,10.0,67,0.00,,,0.00,0.000000,,2013-03-08 06:52:00,
2013-03-07 21:01:00,74.0,62.0,30.03,WNW,288,6.0,10.0,67,0.00,,,0.00,0.000000,,2013-03-08 07:01:00,
2013-03-07 21:11:00,74.0,62.0,30.03,WNW,288,6.0,10.0,67,0.00,,,0.00,0.000000,,2013-03-08 07:11:00,
2013-03-07 21:32:00,74.0,62.0,30.04,NW,307,5.0,9.0,66,0.00,,,0.00,0.000000,,2013-03-08 07:32:00,
2013-03-07 21:42:00,74.0,62.0,30.04,NW,307,5.0,9.0,66,0.00,,,0.00,0.000000,,2013-03-08 07:42:00,
2013-03-07 21:52:00,74.0,62.0,30.04,NW,307,5.0,9.0,66,0.00,,,0.00,0.000000,,2013-03-08 07:52:00,
2013-03-07 22:01:00,74.0,62.0,30.04,NW,307,5.0,9.0,66,0.00,,,0.00,0.000000,,2013-03-08 08:01:00,
2013-03-07 22:11:00,74.0,62.0,30.04,NW,307,5.0,9.0,66,0.00,,,0.00,0.000000,,2013-03-08 08:11:00,
2013-03-07 22:42:00,74.0,63.0,30.04,North,350,3.0,9.0,68,0.00,,,0.00,0.000000,,2013-03-08 08:42:00,
2013-03-07 22:52:00,74.0,63.0,30.04,North,350,3.0,9.0,68,0.00,,,0.00,0.000000,,2013-03-08 08:52:00,
2013-03-07 23:02:00,74.0,63.0,30.04,North,350,3.0,9.0,68,0.00,,,0.00,0.000000,,2013-03-08 09:02:00,
2013-03-07 23:11:00,74.0,63.0,30.04,North,350,3.0,9.0,68,0.00,,,0.00,0.000000,,2013-03-08 09:11:00,
2013-03-07 23:32:00,72.0,62.0,30.04,NE,49,4.0,6.0,71,0.00,,,0.00,0.000000,,2013-03-08 09:32:00,
2013-03-07 23:42:00,72.0,62.0,30.04,NE,49,4.0,6.0,71,0.00,,,0.00,0.000000,,2013-03-08 09:42:00,
2013-03-07 23:52:00,72.0,62.0,30.04,NE,49,4.0,6.0,71,0.00,,,0.00,0.000000,,2013-03-08 09:52:00,